createdAt,value
2022-09-01T00:02:54.387Z,97297.63
2022-09-01T00:08:18.078Z,97300.25
2022-09-01T00:13:39.632Z,97303.38
2022-09-01T00:19:01.238Z,97296.94
2022-09-01T00:24:26.486Z,97289.88
2022-09-01T00:29:47.079Z,97291.50
2022-09-01T00:35:08.845Z,97283.94
2022-09-01T00:40:30.064Z,97290.06
2022-09-01T00:45:51.993Z,97284.47
2022-09-01T00:51:13.543Z,97286.59
2022-09-01T00:56:37.720Z,97282.97
2022-09-01T01:01:59.521Z,97278.50
2022-09-01T01:07:23.060Z,97274.06
2022-09-01T01:12:43.984Z,97268.97
2022-09-01T01:18:05.149Z,97269.31
2022-09-01T01:23:39.681Z,97269.47
2022-09-01T01:29:02.327Z,97271.28
2022-09-01T01:34:24.283Z,97272.09
2022-09-01T01:39:49.162Z,97263.06
2022-09-01T01:45:13.151Z,97270.28
2022-09-01T01:50:38.048Z,97270.81
2022-09-01T01:56:00.150Z,97270.81
2022-09-01T02:01:28.873Z,97273.09
2022-09-01T02:06:51.625Z,97271.13
2022-09-01T02:12:15.017Z,97270.28
2022-09-01T02:17:39.399Z,97262.91
2022-09-01T02:23:09.372Z,97265.22
2022-09-01T02:28:32.125Z,97270.34
2022-09-01T02:33:54.515Z,97265.91
2022-09-01T02:39:23.305Z,97268.19
2022-09-01T02:44:44.181Z,97264.56
2022-09-01T02:50:07.131Z,97264.91
2022-09-01T02:55:28.105Z,97260.97
2022-09-01T03:00:54.225Z,97265.88
2022-09-01T03:06:18.517Z,97256.84
2022-09-01T03:11:41.709Z,97260.94
2022-09-01T03:17:03.016Z,97255.53
2022-09-01T03:22:23.753Z,97257.16
2022-09-01T03:27:45.725Z,97252.88
2022-09-01T03:33:07.577Z,97253.88
2022-09-01T03:38:29.622Z,97249.59
2022-09-01T03:43:55.148Z,97247.81
2022-09-01T03:49:25.000Z,97250.91
2022-09-01T03:54:46.077Z,97246.81
2022-09-01T04:00:11.546Z,97248.28
2022-09-01T04:05:37.647Z,97249.78
2022-09-01T04:11:02.964Z,97250.94
2022-09-01T04:16:50.111Z,97253.22
2022-09-01T04:22:17.648Z,97252.88
2022-09-01T04:27:40.627Z,97254.84
2022-09-01T04:33:01.742Z,97261.28
2022-09-01T04:38:24.935Z,97262.09
2022-09-01T04:43:47.738Z,97262.75
2022-09-01T04:49:13.299Z,97267.69
2022-09-01T04:54:37.196Z,97271.78
2022-09-01T04:59:59.933Z,97264.88
2022-09-01T05:05:23.415Z,97275.41
2022-09-01T05:10:50.299Z,97274.28
2022-09-01T05:16:25.870Z,97281.84
2022-09-01T05:21:51.731Z,97276.44
2022-09-01T05:27:12.515Z,97269.50
2022-09-01T05:32:39.025Z,97272.47
2022-09-01T05:38:00.000Z,97270.13
2022-09-01T05:43:21.699Z,97271.94
2022-09-01T05:48:44.628Z,97268.00
2022-09-01T05:54:08.140Z,97273.09
2022-09-01T05:59:33.630Z,97271.47
2022-09-01T06:05:00.540Z,97283.97
2022-09-01T06:10:27.181Z,97280.53
2022-09-01T06:15:50.372Z,97289.56
2022-09-01T06:21:17.158Z,97286.94
2022-09-01T06:26:40.156Z,97286.75
2022-09-01T06:32:02.544Z,97289.56
2022-09-01T06:37:23.333Z,97294.34
2022-09-01T06:42:51.126Z,97294.66
2022-09-01T06:48:16.055Z,97302.25
2022-09-01T06:53:37.380Z,97299.94
2022-09-01T06:59:06.247Z,97300.75
2022-09-01T07:04:31.668Z,97301.03
2022-09-01T07:10:17.728Z,97307.31
2022-09-01T07:21:41.944Z,97313.22
2022-09-01T07:27:14.369Z,97312.91
2022-09-01T07:32:44.005Z,97316.16
2022-09-01T07:43:51.401Z,97313.97
2022-09-01T07:49:34.704Z,97315.78
2022-09-01T07:55:16.784Z,97319.19
2022-09-01T08:00:40.029Z,97330.06
2022-09-01T08:06:09.315Z,97328.69
2022-09-01T08:22:57.399Z,97323.28
2022-09-01T08:28:26.635Z,97324.09
2022-09-01T08:33:50.024Z,97334.38
2022-09-01T08:39:11.390Z,97335.34
2022-09-01T08:44:51.845Z,97331.84
2022-09-01T08:50:14.024Z,97337.06
2022-09-01T08:55:58.510Z,97334.66
2022-09-01T09:01:48.588Z,97335.84
2022-09-01T09:07:36.295Z,97328.91
2022-09-01T09:13:09.834Z,97331.06
2022-09-01T09:19:00.838Z,97333.34
2022-09-01T09:24:50.161Z,97346.56
2022-09-01T09:30:15.808Z,97343.97
2022-09-01T09:35:42.524Z,97339.50
2022-09-01T09:41:25.663Z,97342.31
2022-09-01T09:46:48.881Z,97343.44
2022-09-01T09:52:09.915Z,97338.28
2022-09-01T09:57:31.695Z,97332.72
2022-09-01T10:02:56.026Z,97336.13
2022-09-01T10:08:37.450Z,97330.56
2022-09-01T10:13:58.335Z,97340.03
2022-09-01T10:19:20.181Z,97327.16
2022-09-01T10:24:44.716Z,97339.75
2022-09-01T10:30:20.296Z,97324.81
2022-09-01T10:35:48.490Z,97333.53
2022-09-01T10:41:14.123Z,97321.63
2022-09-01T10:46:40.732Z,97320.06
2022-09-01T10:52:05.788Z,97320.63
2022-09-01T10:57:55.818Z,97318.94
2022-09-01T11:03:35.496Z,97321.38
2022-09-01T11:09:04.659Z,97308.59
2022-09-01T11:14:27.192Z,97308.81
2022-09-01T11:19:55.681Z,97313.38
2022-09-01T11:31:42.089Z,97314.56
2022-09-01T11:37:03.378Z,97309.38
2022-09-01T11:42:30.275Z,97294.78
2022-09-01T11:47:56.678Z,97284.69
2022-09-01T11:53:23.378Z,97298.00
2022-09-01T11:58:44.795Z,97292.56
2022-09-01T12:04:23.844Z,97288.63
2022-09-01T12:09:48.172Z,97285.06
2022-09-01T12:15:18.844Z,97301.84
2022-09-01T12:20:41.505Z,97284.41
2022-09-01T12:26:14.867Z,97282.53
2022-09-01T12:31:36.392Z,97276.03
2022-09-01T12:37:08.556Z,97280.00
2022-09-01T12:42:39.535Z,97280.88
2022-09-01T12:48:02.533Z,97285.28
2022-09-01T12:53:25.812Z,97293.59
2022-09-01T12:58:52.236Z,97293.59
2022-09-01T13:04:26.135Z,97288.16
2022-09-01T13:09:46.716Z,97287.44
2022-09-01T13:15:08.949Z,97294.00
2022-09-01T13:20:30.019Z,97289.34
2022-09-01T13:25:51.732Z,97291.16
2022-09-01T13:31:29.377Z,97286.50
2022-09-01T13:36:52.688Z,97288.94
2022-09-01T13:42:15.868Z,97286.88
2022-09-01T13:48:15.313Z,97286.63
2022-09-01T13:53:17.585Z,97280.50
2022-09-01T13:58:38.703Z,97283.03
2022-09-01T14:04:00.659Z,97281.84
2022-09-01T14:09:22.020Z,97276.19
2022-09-01T14:20:27.967Z,97279.38
2022-09-01T14:25:51.750Z,97281.38
2022-09-01T14:31:14.474Z,97275.44
2022-09-01T14:36:35.276Z,97277.66
2022-09-01T14:41:55.887Z,97272.16
2022-09-01T14:47:19.137Z,97278.16
2022-09-01T14:52:41.601Z,97269.66
2022-09-01T14:58:02.255Z,97267.84
2022-09-01T15:03:26.227Z,97267.66
2022-09-01T15:08:47.911Z,97266.13
2022-09-01T15:14:11.798Z,97267.75
2022-09-01T15:19:32.992Z,97257.72
2022-09-01T15:24:53.796Z,97259.56
2022-09-01T15:30:17.028Z,97263.38
2022-09-01T15:35:37.979Z,97268.88
2022-09-01T15:41:01.777Z,97261.50
2022-09-01T15:46:32.060Z,97265.06
2022-09-01T15:51:56.611Z,97260.34
2022-09-01T15:57:18.395Z,97259.78
2022-09-01T16:02:39.458Z,97254.19
2022-09-01T16:08:01.550Z,97247.19
2022-09-01T16:13:25.800Z,97258.50
2022-09-01T16:19:04.237Z,97256.06
2022-09-01T16:24:25.465Z,97254.97
2022-09-01T16:29:53.311Z,97259.41
2022-09-01T16:35:15.912Z,97257.53
2022-09-01T16:40:47.213Z,97255.16
2022-09-01T16:46:19.551Z,97264.13
2022-09-01T16:52:05.503Z,97265.75
2022-09-01T16:57:26.052Z,97258.56
2022-09-01T17:02:59.813Z,97260.09
2022-09-01T17:08:26.597Z,97264.81
2022-09-01T17:13:52.168Z,97264.25
2022-09-01T17:19:19.572Z,97258.28
2022-09-01T17:24:42.847Z,97265.78
2022-09-01T17:30:07.234Z,97272.00
2022-09-01T17:35:48.476Z,97279.09
2022-09-01T17:41:12.096Z,97286.19
2022-09-01T17:47:06.020Z,97293.13
2022-09-01T17:52:52.636Z,97295.69
2022-09-01T17:58:25.781Z,97292.88
2022-09-01T18:04:11.693Z,97295.91
2022-09-01T18:09:45.389Z,97305.16
2022-09-01T18:15:09.892Z,97317.09
2022-09-01T18:20:41.145Z,97312.47
2022-09-01T18:26:09.355Z,97319.06
2022-09-01T18:31:42.029Z,97313.13
2022-09-01T18:37:27.941Z,97323.50
2022-09-01T18:43:18.409Z,97327.97
2022-09-01T18:49:21.147Z,97325.84
2022-09-01T18:55:01.070Z,97333.25
2022-09-01T19:00:45.671Z,97326.69
2022-09-01T19:06:26.039Z,97319.91
2022-09-01T19:11:58.507Z,97325.31
2022-09-01T19:17:28.475Z,97326.50
2022-09-01T19:23:06.164Z,97328.78
2022-09-01T19:28:49.451Z,97337.00
2022-09-01T19:34:12.372Z,97337.63
2022-09-01T19:39:37.213Z,97337.47
2022-09-01T19:44:58.145Z,97345.25
2022-09-01T19:50:35.961Z,97336.91
2022-09-01T19:56:10.626Z,97344.53
2022-09-01T20:01:43.777Z,97337.78
2022-09-01T20:07:12.744Z,97336.97
2022-09-01T20:13:03.058Z,97344.22
2022-09-01T20:18:29.746Z,97340.13
2022-09-01T20:23:59.058Z,97350.31
2022-09-01T20:29:46.121Z,97338.63
2022-09-01T20:35:13.801Z,97339.59
2022-09-01T20:40:40.250Z,97338.88
2022-09-01T20:46:01.480Z,97334.75
2022-09-01T20:51:36.070Z,97336.53
2022-09-01T20:57:08.819Z,97337.34
2022-09-01T21:02:49.064Z,97346.38
2022-09-01T21:08:37.111Z,97342.09
2022-09-01T21:14:16.099Z,97346.63
2022-09-01T21:20:11.442Z,97343.19
2022-09-01T21:25:32.172Z,97333.81
2022-09-01T21:30:57.804Z,97334.75
2022-09-01T21:36:18.881Z,97337.19
2022-09-01T21:41:40.244Z,97333.56
2022-09-01T21:47:01.542Z,97336.06
2022-09-01T21:52:22.451Z,97329.00
2022-09-01T21:57:43.410Z,97326.97
2022-09-01T22:03:04.714Z,97321.56
2022-09-01T22:08:26.101Z,97323.06
2022-09-01T22:13:47.815Z,97320.44
2022-09-01T22:19:08.675Z,97316.00
2022-09-01T22:24:29.296Z,97314.19
2022-09-01T22:29:52.135Z,97308.09
2022-09-01T22:35:15.493Z,97314.03
2022-09-01T22:40:42.592Z,97305.66
2022-09-01T22:46:06.280Z,97309.63
2022-09-01T22:51:27.746Z,97318.66
2022-09-01T22:56:49.892Z,97308.66
2022-09-01T23:02:11.052Z,97307.97
2022-09-01T23:07:32.012Z,97302.06
2022-09-01T23:12:52.729Z,97298.91
2022-09-01T23:18:13.509Z,97303.72
2022-09-01T23:23:35.199Z,97301.06
2022-09-01T23:28:57.162Z,97299.78
2022-09-01T23:34:18.039Z,97295.34
2022-09-01T23:39:38.599Z,97295.84
2022-09-01T23:44:59.173Z,97298.63
2022-09-01T23:50:20.127Z,97289.25
2022-09-01T23:55:45.210Z,97289.75
